sensor_id;sensor_type;location;lat;lon;timestamp;P1;durP1;ratioP1;P2;durP2;ratioP2
38264;SDS011;24062;47.480;8.768;2023-04-15T00:01:07;1.93;;;1.13;;
38264;SDS011;24062;47.480;8.768;2023-04-15T00:03:34;5.40;;;1.30;;
38264;SDS011;24062;47.480;8.768;2023-04-15T00:06:01;1.90;;;0.90;;
38264;SDS011;24062;47.480;8.768;2023-04-15T00:08:28;2.10;;;1.20;;
38264;SDS011;24062;47.480;8.768;2023-04-15T00:10:57;3.07;;;1.23;;
38264;SDS011;24062;47.480;8.768;2023-04-15T00:13:26;7.50;;;1.53;;
38264;SDS011;24062;47.480;8.768;2023-04-15T00:15:53;2.03;;;1.13;;
38264;SDS011;24062;47.480;8.768;2023-04-15T00:18:20;5.30;;;1.37;;
38264;SDS011;24062;47.480;8.768;2023-04-15T00:20:47;1.63;;;1.07;;
38264;SDS011;24062;47.480;8.768;2023-04-15T00:23:14;2.20;;;0.90;;
38264;SDS011;24062;47.480;8.768;2023-04-15T00:25:42;2.20;;;1.13;;
38264;SDS011;24062;47.480;8.768;2023-04-15T00:28:10;2.13;;;1.30;;
38264;SDS011;24062;47.480;8.768;2023-04-15T00:30:37;4.57;;;1.00;;
38264;SDS011;24062;47.480;8.768;2023-04-15T00:33:04;2.23;;;1.10;;
38264;SDS011;24062;47.480;8.768;2023-04-15T00:35:32;1.80;;;1.20;;
38264;SDS011;24062;47.480;8.768;2023-04-15T00:38:00;2.37;;;0.83;;
38264;SDS011;24062;47.480;8.768;2023-04-15T00:40:27;1.73;;;1.23;;
38264;SDS011;24062;47.480;8.768;2023-04-15T00:42:54;3.67;;;1.30;;
38264;SDS011;24062;47.480;8.768;2023-04-15T00:45:22;1.80;;;1.10;;
38264;SDS011;24062;47.480;8.768;2023-04-15T00:47:49;3.20;;;1.20;;
38264;SDS011;24062;47.480;8.768;2023-04-15T00:50:16;3.63;;;1.40;;
38264;SDS011;24062;47.480;8.768;2023-04-15T00:52:43;1.87;;;1.00;;
38264;SDS011;24062;47.480;8.768;2023-04-15T00:55:10;5.37;;;1.47;;
38264;SDS011;24062;47.480;8.768;2023-04-15T00:57:38;3.33;;;1.70;;
38264;SDS011;24062;47.480;8.768;2023-04-15T01:00:05;3.03;;;1.03;;
38264;SDS011;24062;47.480;8.768;2023-04-15T01:02:36;1.70;;;1.03;;
38264;SDS011;24062;47.480;8.768;2023-04-15T01:05:04;4.27;;;1.53;;
38264;SDS011;24062;47.480;8.768;2023-04-15T01:07:31;2.80;;;1.60;;
38264;SDS011;24062;47.480;8.768;2023-04-15T01:09:58;1.90;;;1.10;;
38264;SDS011;24062;47.480;8.768;2023-04-15T01:12:26;3.43;;;1.17;;
38264;SDS011;24062;47.480;8.768;2023-04-15T01:14:54;4.20;;;1.30;;
38264;SDS011;24062;47.480;8.768;2023-04-15T01:17:21;3.10;;;1.10;;
38264;SDS011;24062;47.480;8.768;2023-04-15T01:19:51;3.90;;;1.33;;
38264;SDS011;24062;47.480;8.768;2023-04-15T01:22:20;3.17;;;1.23;;
38264;SDS011;24062;47.480;8.768;2023-04-15T01:24:54;1.77;;;1.13;;
38264;SDS011;24062;47.480;8.768;2023-04-15T01:27:33;1.63;;;0.87;;
38264;SDS011;24062;47.480;8.768;2023-04-15T01:30:04;1.70;;;1.07;;
38264;SDS011;24062;47.480;8.768;2023-04-15T01:32:32;1.97;;;1.00;;
38264;SDS011;24062;47.480;8.768;2023-04-15T01:34:59;2.00;;;1.00;;
38264;SDS011;24062;47.480;8.768;2023-04-15T01:37:26;2.87;;;0.97;;
38264;SDS011;24062;47.480;8.768;2023-04-15T01:39:53;1.33;;;0.83;;
38264;SDS011;24062;47.480;8.768;2023-04-15T01:42:21;2.70;;;1.20;;
38264;SDS011;24062;47.480;8.768;2023-04-15T01:44:49;2.10;;;1.40;;
38264;SDS011;24062;47.480;8.768;2023-04-15T01:47:16;2.87;;;1.60;;
38264;SDS011;24062;47.480;8.768;2023-04-15T01:49:43;3.27;;;1.30;;
38264;SDS011;24062;47.480;8.768;2023-04-15T01:52:10;2.07;;;1.07;;
38264;SDS011;24062;47.480;8.768;2023-04-15T01:54:37;2.70;;;1.50;;
38264;SDS011;24062;47.480;8.768;2023-04-15T01:57:05;2.00;;;1.27;;
38264;SDS011;24062;47.480;8.768;2023-04-15T01:59:31;6.00;;;1.20;;
38264;SDS011;24062;47.480;8.768;2023-04-15T02:02:00;3.17;;;1.47;;
38264;SDS011;24062;47.480;8.768;2023-04-15T02:04:27;3.20;;;1.80;;
38264;SDS011;24062;47.480;8.768;2023-04-15T02:06:54;5.10;;;1.07;;
38264;SDS011;24062;47.480;8.768;2023-04-15T02:09:21;3.03;;;1.37;;
38264;SDS011;24062;47.480;8.768;2023-04-15T02:11:48;2.80;;;0.80;;
38264;SDS011;24062;47.480;8.768;2023-04-15T02:14:15;1.57;;;0.83;;
38264;SDS011;24062;47.480;8.768;2023-04-15T02:16:42;1.43;;;0.80;;
38264;SDS011;24062;47.480;8.768;2023-04-15T02:19:11;4.90;;;1.60;;
38264;SDS011;24062;47.480;8.768;2023-04-15T02:21:38;1.60;;;1.03;;
38264;SDS011;24062;47.480;8.768;2023-04-15T02:24:05;3.83;;;0.90;;
38264;SDS011;24062;47.480;8.768;2023-04-15T02:26:32;1.50;;;0.90;;
38264;SDS011;24062;47.480;8.768;2023-04-15T02:28:59;1.47;;;0.80;;
38264;SDS011;24062;47.480;8.768;2023-04-15T02:31:26;1.80;;;0.80;;
38264;SDS011;24062;47.480;8.768;2023-04-15T02:33:53;6.97;;;0.83;;
38264;SDS011;24062;47.480;8.768;2023-04-15T02:36:21;1.83;;;1.03;;
38264;SDS011;24062;47.480;8.768;2023-04-15T02:38:48;3.37;;;1.30;;
38264;SDS011;24062;47.480;8.768;2023-04-15T02:41:15;7.03;;;1.37;;
38264;SDS011;24062;47.480;8.768;2023-04-15T02:43:42;3.70;;;1.40;;
38264;SDS011;24062;47.480;8.768;2023-04-15T02:46:09;1.87;;;1.20;;
38264;SDS011;24062;47.480;8.768;2023-04-15T02:48:38;2.67;;;0.90;;
38264;SDS011;24062;47.480;8.768;2023-04-15T02:51:12;4.90;;;1.30;;
38264;SDS011;24062;47.480;8.768;2023-04-15T02:53:41;1.87;;;0.83;;
38264;SDS011;24062;47.480;8.768;2023-04-15T02:56:08;1.90;;;0.90;;
38264;SDS011;24062;47.480;8.768;2023-04-15T02:58:35;2.80;;;1.20;;
38264;SDS011;24062;47.480;8.768;2023-04-15T03:01:02;3.97;;;1.77;;
38264;SDS011;24062;47.480;8.768;2023-04-15T03:03:29;1.80;;;0.97;;
38264;SDS011;24062;47.480;8.768;2023-04-15T03:05:56;1.60;;;0.80;;
38264;SDS011;24062;47.480;8.768;2023-04-15T03:08:23;1.97;;;0.80;;
38264;SDS011;24062;47.480;8.768;2023-04-15T03:10:52;2.17;;;0.97;;
38264;SDS011;24062;47.480;8.768;2023-04-15T03:13:19;2.03;;;1.10;;
38264;SDS011;24062;47.480;8.768;2023-04-15T03:15:46;4.10;;;1.17;;
38264;SDS011;24062;47.480;8.768;2023-04-15T03:18:13;1.70;;;1.00;;
38264;SDS011;24062;47.480;8.768;2023-04-15T03:20:40;3.73;;;1.03;;
38264;SDS011;24062;47.480;8.768;2023-04-15T03:23:07;3.00;;;0.93;;
38264;SDS011;24062;47.480;8.768;2023-04-15T03:25:34;2.17;;;1.00;;
38264;SDS011;24062;47.480;8.768;2023-04-15T03:28:03;3.63;;;0.90;;
38264;SDS011;24062;47.480;8.768;2023-04-15T03:30:30;2.30;;;0.70;;
38264;SDS011;24062;47.480;8.768;2023-04-15T03:32:57;1.60;;;0.80;;
38264;SDS011;24062;47.480;8.768;2023-04-15T03:35:24;2.53;;;0.80;;
38264;SDS011;24062;47.480;8.768;2023-04-15T03:37:51;2.87;;;1.00;;
38264;SDS011;24062;47.480;8.768;2023-04-15T03:40:19;4.60;;;1.23;;
38264;SDS011;24062;47.480;8.768;2023-04-15T03:42:47;4.73;;;1.17;;
38264;SDS011;24062;47.480;8.768;2023-04-15T03:45:15;1.53;;;0.80;;
38264;SDS011;24062;47.480;8.768;2023-04-15T03:47:42;2.80;;;0.80;;
38264;SDS011;24062;47.480;8.768;2023-04-15T03:50:09;2.00;;;1.10;;
38264;SDS011;24062;47.480;8.768;2023-04-15T03:52:36;4.80;;;0.80;;
38264;SDS011;24062;47.480;8.768;2023-04-15T03:55:03;2.60;;;0.73;;
38264;SDS011;24062;47.480;8.768;2023-04-15T03:57:30;2.50;;;0.90;;
38264;SDS011;24062;47.480;8.768;2023-04-15T04:00:02;2.03;;;0.93;;
38264;SDS011;24062;47.480;8.768;2023-04-15T04:02:30;3.80;;;1.10;;
38264;SDS011;24062;47.480;8.768;2023-04-15T04:04:57;3.07;;;0.80;;
38264;SDS011;24062;47.480;8.768;2023-04-15T04:07:24;4.80;;;1.10;;
38264;SDS011;24062;47.480;8.768;2023-04-15T04:09:51;1.83;;;0.83;;
38264;SDS011;24062;47.480;8.768;2023-04-15T04:12:18;5.13;;;0.80;;
38264;SDS011;24062;47.480;8.768;2023-04-15T04:14:45;2.73;;;1.00;;
38264;SDS011;24062;47.480;8.768;2023-04-15T04:17:12;1.20;;;0.60;;
38264;SDS011;24062;47.480;8.768;2023-04-15T04:19:40;1.70;;;0.80;;
38264;SDS011;24062;47.480;8.768;2023-04-15T04:22:07;1.80;;;0.80;;
38264;SDS011;24062;47.480;8.768;2023-04-15T04:24:34;1.43;;;0.60;;
38264;SDS011;24062;47.480;8.768;2023-04-15T04:27:01;4.67;;;1.10;;
38264;SDS011;24062;47.480;8.768;2023-04-15T04:29:28;2.53;;;0.93;;
38264;SDS011;24062;47.480;8.768;2023-04-15T04:31:55;4.90;;;1.10;;
38264;SDS011;24062;47.480;8.768;2023-04-15T04:34:22;4.53;;;0.80;;
38264;SDS011;24062;47.480;8.768;2023-04-15T04:36:50;6.87;;;1.50;;
38264;SDS011;24062;47.480;8.768;2023-04-15T04:39:17;1.97;;;0.87;;
38264;SDS011;24062;47.480;8.768;2023-04-15T04:41:44;1.30;;;0.80;;
38264;SDS011;24062;47.480;8.768;2023-04-15T04:44:11;1.60;;;0.80;;
38264;SDS011;24062;47.480;8.768;2023-04-15T04:46:38;2.10;;;0.90;;
38264;SDS011;24062;47.480;8.768;2023-04-15T04:49:05;1.97;;;0.90;;
38264;SDS011;24062;47.480;8.768;2023-04-15T04:51:32;1.27;;;0.63;;
38264;SDS011;24062;47.480;8.768;2023-04-15T04:54:00;2.37;;;0.90;;
38264;SDS011;24062;47.480;8.768;2023-04-15T04:56:27;1.57;;;0.97;;
38264;SDS011;24062;47.480;8.768;2023-04-15T04:58:54;1.60;;;0.80;;
38264;SDS011;24062;47.480;8.768;2023-04-15T05:01:21;2.50;;;0.87;;
38264;SDS011;24062;47.480;8.768;2023-04-15T05:03:48;1.50;;;0.60;;
38264;SDS011;24062;47.480;8.768;2023-04-15T05:06:15;2.87;;;0.90;;
38264;SDS011;24062;47.480;8.768;2023-04-15T05:08:42;1.57;;;0.67;;
38264;SDS011;24062;47.480;8.768;2023-04-15T05:11:10;4.30;;;1.00;;
38264;SDS011;24062;47.480;8.768;2023-04-15T05:13:37;2.77;;;0.90;;
38264;SDS011;24062;47.480;8.768;2023-04-15T05:16:04;2.03;;;0.83;;
38264;SDS011;24062;47.480;8.768;2023-04-15T05:18:31;3.77;;;0.80;;
38264;SDS011;24062;47.480;8.768;2023-04-15T05:20:58;1.80;;;1.07;;
38264;SDS011;24062;47.480;8.768;2023-04-15T05:23:26;2.17;;;0.90;;
38264;SDS011;24062;47.480;8.768;2023-04-15T05:25:53;1.77;;;0.80;;
38264;SDS011;24062;47.480;8.768;2023-04-15T05:28:21;1.90;;;0.90;;
38264;SDS011;24062;47.480;8.768;2023-04-15T05:30:48;2.90;;;1.10;;
38264;SDS011;24062;47.480;8.768;2023-04-15T05:33:15;2.37;;;1.00;;
38264;SDS011;24062;47.480;8.768;2023-04-15T05:35:42;4.93;;;1.07;;
38264;SDS011;24062;47.480;8.768;2023-04-15T05:38:09;7.13;;;1.30;;
38264;SDS011;24062;47.480;8.768;2023-04-15T05:40:36;2.10;;;1.10;;
38264;SDS011;24062;47.480;8.768;2023-04-15T05:43:03;3.37;;;1.50;;
38264;SDS011;24062;47.480;8.768;2023-04-15T05:45:31;1.70;;;0.83;;
38264;SDS011;24062;47.480;8.768;2023-04-15T05:47:58;2.50;;;0.83;;
38264;SDS011;24062;47.480;8.768;2023-04-15T05:50:25;1.50;;;0.70;;
38264;SDS011;24062;47.480;8.768;2023-04-15T05:52:52;3.20;;;1.07;;
38264;SDS011;24062;47.480;8.768;2023-04-15T05:55:20;2.20;;;0.93;;
38264;SDS011;24062;47.480;8.768;2023-04-15T05:57:47;2.47;;;0.80;;
38264;SDS011;24062;47.480;8.768;2023-04-15T06:00:14;2.90;;;1.10;;
38264;SDS011;24062;47.480;8.768;2023-04-15T06:02:42;3.00;;;1.30;;
38264;SDS011;24062;47.480;8.768;2023-04-15T06:05:09;1.97;;;0.93;;
38264;SDS011;24062;47.480;8.768;2023-04-15T06:07:36;5.43;;;1.10;;
38264;SDS011;24062;47.480;8.768;2023-04-15T06:10:04;5.73;;;1.90;;
38264;SDS011;24062;47.480;8.768;2023-04-15T06:12:32;1.70;;;1.20;;
38264;SDS011;24062;47.480;8.768;2023-04-15T06:14:58;3.30;;;1.33;;
38264;SDS011;24062;47.480;8.768;2023-04-15T06:17:25;4.70;;;4.20;;
38264;SDS011;24062;47.480;8.768;2023-04-15T06:19:54;8.93;;;8.13;;
38264;SDS011;24062;47.480;8.768;2023-04-15T06:22:21;4.33;;;3.90;;
38264;SDS011;24062;47.480;8.768;2023-04-15T06:24:48;2.53;;;1.20;;
38264;SDS011;24062;47.480;8.768;2023-04-15T06:27:15;3.00;;;1.47;;
38264;SDS011;24062;47.480;8.768;2023-04-15T06:29:42;5.43;;;1.90;;
38264;SDS011;24062;47.480;8.768;2023-04-15T06:32:10;9.10;;;2.10;;
38264;SDS011;24062;47.480;8.768;2023-04-15T06:34:37;3.20;;;2.10;;
38264;SDS011;24062;47.480;8.768;2023-04-15T06:37:05;2.93;;;1.33;;
38264;SDS011;24062;47.480;8.768;2023-04-15T06:39:34;2.50;;;1.20;;
38264;SDS011;24062;47.480;8.768;2023-04-15T06:42:01;3.70;;;1.40;;
38264;SDS011;24062;47.480;8.768;2023-04-15T06:44:28;1.90;;;1.30;;
38264;SDS011;24062;47.480;8.768;2023-04-15T06:46:55;3.10;;;1.20;;
38264;SDS011;24062;47.480;8.768;2023-04-15T06:49:22;1.83;;;1.37;;
38264;SDS011;24062;47.480;8.768;2023-04-15T06:51:49;9.20;;;1.10;;
38264;SDS011;24062;47.480;8.768;2023-04-15T06:54:18;2.50;;;1.00;;
38264;SDS011;24062;47.480;8.768;2023-04-15T06:56:45;2.47;;;1.63;;
38264;SDS011;24062;47.480;8.768;2023-04-15T06:59:12;3.00;;;1.00;;
38264;SDS011;24062;47.480;8.768;2023-04-15T07:01:39;1.67;;;1.20;;
38264;SDS011;24062;47.480;8.768;2023-04-15T07:04:06;2.60;;;1.00;;
38264;SDS011;24062;47.480;8.768;2023-04-15T07:06:33;2.90;;;1.07;;
38264;SDS011;24062;47.480;8.768;2023-04-15T07:09:00;2.30;;;1.27;;
38264;SDS011;24062;47.480;8.768;2023-04-15T07:11:30;2.73;;;1.33;;
38264;SDS011;24062;47.480;8.768;2023-04-15T07:13:57;1.67;;;1.03;;
38264;SDS011;24062;47.480;8.768;2023-04-15T07:16:24;3.37;;;2.00;;
38264;SDS011;24062;47.480;8.768;2023-04-15T07:18:51;2.73;;;1.37;;
38264;SDS011;24062;47.480;8.768;2023-04-15T07:21:19;2.33;;;1.00;;
38264;SDS011;24062;47.480;8.768;2023-04-15T07:23:46;2.23;;;1.40;;
38264;SDS011;24062;47.480;8.768;2023-04-15T07:26:13;1.70;;;0.97;;
38264;SDS011;24062;47.480;8.768;2023-04-15T07:28:42;2.00;;;1.30;;
38264;SDS011;24062;47.480;8.768;2023-04-15T07:31:10;3.27;;;1.27;;
38264;SDS011;24062;47.480;8.768;2023-04-15T07:33:37;10.43;;;1.17;;
38264;SDS011;24062;47.480;8.768;2023-04-15T07:36:04;3.33;;;1.60;;
38264;SDS011;24062;47.480;8.768;2023-04-15T07:38:31;1.67;;;1.00;;
38264;SDS011;24062;47.480;8.768;2023-04-15T07:40:58;3.10;;;1.70;;
38264;SDS011;24062;47.480;8.768;2023-04-15T07:43:25;2.53;;;1.10;;
38264;SDS011;24062;47.480;8.768;2023-04-15T07:45:54;2.17;;;1.23;;
38264;SDS011;24062;47.480;8.768;2023-04-15T07:48:21;6.10;;;1.40;;
38264;SDS011;24062;47.480;8.768;2023-04-15T07:50:47;2.00;;;1.00;;
38264;SDS011;24062;47.480;8.768;2023-04-15T07:53:14;2.40;;;1.03;;
38264;SDS011;24062;47.480;8.768;2023-04-15T07:55:41;1.87;;;1.10;;
38264;SDS011;24062;47.480;8.768;2023-04-15T07:58:08;3.50;;;1.50;;
38264;SDS011;24062;47.480;8.768;2023-04-15T08:00:35;2.03;;;1.10;;
38264;SDS011;24062;47.480;8.768;2023-04-15T08:03:04;4.40;;;1.20;;
38264;SDS011;24062;47.480;8.768;2023-04-15T08:05:31;7.20;;;1.13;;
38264;SDS011;24062;47.480;8.768;2023-04-15T08:07:58;2.63;;;1.80;;
38264;SDS011;24062;47.480;8.768;2023-04-15T08:10:25;3.40;;;2.30;;
38264;SDS011;24062;47.480;8.768;2023-04-15T08:12:54;3.30;;;2.10;;
38264;SDS011;24062;47.480;8.768;2023-04-15T08:15:21;4.53;;;1.87;;
38264;SDS011;24062;47.480;8.768;2023-04-15T08:17:48;3.50;;;2.13;;
38264;SDS011;24062;47.480;8.768;2023-04-15T08:20:17;4.23;;;2.20;;
38264;SDS011;24062;47.480;8.768;2023-04-15T08:22:44;4.23;;;2.40;;
38264;SDS011;24062;47.480;8.768;2023-04-15T08:25:15;5.37;;;2.50;;
38264;SDS011;24062;47.480;8.768;2023-04-15T08:27:43;4.83;;;1.80;;
38264;SDS011;24062;47.480;8.768;2023-04-15T08:30:10;3.83;;;2.10;;
38264;SDS011;24062;47.480;8.768;2023-04-15T08:32:37;7.60;;;2.10;;
38264;SDS011;24062;47.480;8.768;2023-04-15T08:35:04;4.93;;;2.23;;
38264;SDS011;24062;47.480;8.768;2023-04-15T08:37:33;3.20;;;1.77;;
38264;SDS011;24062;47.480;8.768;2023-04-15T08:40:00;3.47;;;1.60;;
38264;SDS011;24062;47.480;8.768;2023-04-15T08:42:30;4.13;;;1.47;;
38264;SDS011;24062;47.480;8.768;2023-04-15T08:44:59;2.43;;;1.50;;
38264;SDS011;24062;47.480;8.768;2023-04-15T08:47:30;3.70;;;1.33;;
38264;SDS011;24062;47.480;8.768;2023-04-15T08:49:58;3.93;;;1.43;;
38264;SDS011;24062;47.480;8.768;2023-04-15T08:52:29;2.47;;;1.60;;
38264;SDS011;24062;47.480;8.768;2023-04-15T08:54:58;3.27;;;1.90;;
38264;SDS011;24062;47.480;8.768;2023-04-15T08:57:27;3.87;;;1.60;;
38264;SDS011;24062;47.480;8.768;2023-04-15T08:59:55;5.80;;;2.37;;
38264;SDS011;24062;47.480;8.768;2023-04-15T09:02:22;3.30;;;1.93;;
38264;SDS011;24062;47.480;8.768;2023-04-15T09:04:50;3.47;;;2.07;;
38264;SDS011;24062;47.480;8.768;2023-04-15T09:07:16;2.47;;;1.90;;
38264;SDS011;24062;47.480;8.768;2023-04-15T09:09:43;4.57;;;2.00;;
38264;SDS011;24062;47.480;8.768;2023-04-15T09:12:12;3.07;;;1.90;;
38264;SDS011;24062;47.480;8.768;2023-04-15T09:14:41;3.40;;;2.00;;
38264;SDS011;24062;47.480;8.768;2023-04-15T09:17:09;3.53;;;1.83;;
38264;SDS011;24062;47.480;8.768;2023-04-15T09:19:36;5.10;;;1.50;;
38264;SDS011;24062;47.480;8.768;2023-04-15T09:22:03;4.63;;;1.60;;
38264;SDS011;24062;47.480;8.768;2023-04-15T09:24:35;4.40;;;1.70;;
38264;SDS011;24062;47.480;8.768;2023-04-15T09:27:03;2.53;;;1.30;;
38264;SDS011;24062;47.480;8.768;2023-04-15T09:29:32;8.20;;;1.47;;
38264;SDS011;24062;47.480;8.768;2023-04-15T09:32:08;1.90;;;1.30;;
38264;SDS011;24062;47.480;8.768;2023-04-15T09:34:36;2.67;;;1.50;;
38264;SDS011;24062;47.480;8.768;2023-04-15T09:37:03;4.90;;;1.63;;
38264;SDS011;24062;47.480;8.768;2023-04-15T09:39:44;3.93;;;1.47;;
38264;SDS011;24062;47.480;8.768;2023-04-15T09:42:12;2.80;;;1.33;;
38264;SDS011;24062;47.480;8.768;2023-04-15T09:44:41;2.63;;;1.50;;
38264;SDS011;24062;47.480;8.768;2023-04-15T09:47:08;2.60;;;1.57;;
38264;SDS011;24062;47.480;8.768;2023-04-15T09:49:35;3.30;;;1.80;;
38264;SDS011;24062;47.480;8.768;2023-04-15T09:52:02;4.20;;;1.80;;
38264;SDS011;24062;47.480;8.768;2023-04-15T09:54:32;3.73;;;1.70;;
38264;SDS011;24062;47.480;8.768;2023-04-15T09:57:04;4.07;;;1.87;;
38264;SDS011;24062;47.480;8.768;2023-04-15T09:59:32;5.10;;;1.50;;
38264;SDS011;24062;47.480;8.768;2023-04-15T10:02:01;2.17;;;1.40;;
38264;SDS011;24062;47.480;8.768;2023-04-15T10:04:31;4.90;;;1.97;;
38264;SDS011;24062;47.480;8.768;2023-04-15T10:07:02;5.00;;;1.87;;
38264;SDS011;24062;47.480;8.768;2023-04-15T10:09:30;4.03;;;1.83;;
38264;SDS011;24062;47.480;8.768;2023-04-15T10:11:58;3.47;;;1.40;;
38264;SDS011;24062;47.480;8.768;2023-04-15T10:14:26;2.97;;;1.50;;
38264;SDS011;24062;47.480;8.768;2023-04-15T10:16:56;3.00;;;1.40;;
38264;SDS011;24062;47.480;8.768;2023-04-15T10:19:28;2.30;;;1.40;;
38264;SDS011;24062;47.480;8.768;2023-04-15T10:21:58;2.50;;;1.20;;
38264;SDS011;24062;47.480;8.768;2023-04-15T10:24:25;2.73;;;1.37;;
38264;SDS011;24062;47.480;8.768;2023-04-15T10:26:53;3.00;;;1.30;;
38264;SDS011;24062;47.480;8.768;2023-04-15T10:29:21;3.97;;;1.37;;
38264;SDS011;24062;47.480;8.768;2023-04-15T10:31:51;6.27;;;1.83;;
38264;SDS011;24062;47.480;8.768;2023-04-15T10:34:19;3.37;;;1.30;;
38264;SDS011;24062;47.480;8.768;2023-04-15T10:36:48;4.13;;;1.43;;
38264;SDS011;24062;47.480;8.768;2023-04-15T10:42:06;2.77;;;1.37;;
38264;SDS011;24062;47.480;8.768;2023-04-15T10:44:34;2.37;;;1.33;;
38264;SDS011;24062;47.480;8.768;2023-04-15T10:47:05;2.33;;;1.50;;
38264;SDS011;24062;47.480;8.768;2023-04-15T10:49:41;3.10;;;1.00;;
38264;SDS011;24062;47.480;8.768;2023-04-15T10:52:11;5.07;;;1.10;;
38264;SDS011;24062;47.480;8.768;2023-04-15T10:54:41;2.77;;;1.60;;
38264;SDS011;24062;47.480;8.768;2023-04-15T10:57:08;3.73;;;1.20;;
38264;SDS011;24062;47.480;8.768;2023-04-15T11:00:00;2.70;;;1.60;;
38264;SDS011;24062;47.480;8.768;2023-04-15T11:02:41;2.10;;;1.23;;
38264;SDS011;24062;47.480;8.768;2023-04-15T11:05:10;4.37;;;1.57;;
38264;SDS011;24062;47.480;8.768;2023-04-15T11:07:40;2.67;;;1.40;;
38264;SDS011;24062;47.480;8.768;2023-04-15T11:13:22;3.30;;;1.63;;
38264;SDS011;24062;47.480;8.768;2023-04-15T11:15:56;4.23;;;1.50;;
38264;SDS011;24062;47.480;8.768;2023-04-15T11:18:26;2.87;;;1.20;;
38264;SDS011;24062;47.480;8.768;2023-04-15T11:20:57;2.33;;;0.93;;
38264;SDS011;24062;47.480;8.768;2023-04-15T11:23:32;2.50;;;1.20;;
38264;SDS011;24062;47.480;8.768;2023-04-15T11:26:05;4.00;;;1.67;;
38264;SDS011;24062;47.480;8.768;2023-04-15T11:28:36;2.83;;;1.73;;
38264;SDS011;24062;47.480;8.768;2023-04-15T11:31:08;2.40;;;1.50;;
38264;SDS011;24062;47.480;8.768;2023-04-15T11:33:36;6.27;;;1.33;;
38264;SDS011;24062;47.480;8.768;2023-04-15T11:36:05;2.57;;;0.93;;
38264;SDS011;24062;47.480;8.768;2023-04-15T11:38:34;2.10;;;0.80;;
38264;SDS011;24062;47.480;8.768;2023-04-15T11:41:02;2.17;;;0.97;;
38264;SDS011;24062;47.480;8.768;2023-04-15T11:43:30;3.20;;;1.47;;
38264;SDS011;24062;47.480;8.768;2023-04-15T11:45:59;2.50;;;1.10;;
38264;SDS011;24062;47.480;8.768;2023-04-15T11:48:28;6.03;;;1.23;;
38264;SDS011;24062;47.480;8.768;2023-04-15T11:50:58;4.10;;;1.20;;
38264;SDS011;24062;47.480;8.768;2023-04-15T11:53:36;2.80;;;1.20;;
38264;SDS011;24062;47.480;8.768;2023-04-15T11:56:05;2.90;;;1.20;;
38264;SDS011;24062;47.480;8.768;2023-04-15T11:58:34;2.17;;;1.13;;
38264;SDS011;24062;47.480;8.768;2023-04-15T12:01:03;2.50;;;0.87;;
38264;SDS011;24062;47.480;8.768;2023-04-15T12:03:35;3.67;;;1.30;;
38264;SDS011;24062;47.480;8.768;2023-04-15T12:06:04;3.20;;;1.00;;
38264;SDS011;24062;47.480;8.768;2023-04-15T12:08:49;2.30;;;1.50;;
38264;SDS011;24062;47.480;8.768;2023-04-15T12:11:28;2.10;;;1.00;;
38264;SDS011;24062;47.480;8.768;2023-04-15T12:13:57;3.20;;;1.20;;
38264;SDS011;24062;47.480;8.768;2023-04-15T12:16:27;2.97;;;1.20;;
38264;SDS011;24062;47.480;8.768;2023-04-15T12:18:55;3.57;;;1.10;;
38264;SDS011;24062;47.480;8.768;2023-04-15T12:21:24;2.43;;;1.43;;
38264;SDS011;24062;47.480;8.768;2023-04-15T12:23:54;2.30;;;0.80;;
38264;SDS011;24062;47.480;8.768;2023-04-15T12:26:25;3.10;;;1.00;;
38264;SDS011;24062;47.480;8.768;2023-04-15T12:28:53;2.10;;;0.80;;
38264;SDS011;24062;47.480;8.768;2023-04-15T12:31:21;3.30;;;1.27;;
38264;SDS011;24062;47.480;8.768;2023-04-15T12:33:48;1.97;;;1.10;;
38264;SDS011;24062;47.480;8.768;2023-04-15T12:36:15;2.60;;;1.50;;
38264;SDS011;24062;47.480;8.768;2023-04-15T12:38:42;2.30;;;1.10;;
38264;SDS011;24062;47.480;8.768;2023-04-15T12:41:10;2.67;;;1.30;;
38264;SDS011;24062;47.480;8.768;2023-04-15T12:43:37;3.73;;;1.63;;
38264;SDS011;24062;47.480;8.768;2023-04-15T12:46:04;4.43;;;1.90;;
38264;SDS011;24062;47.480;8.768;2023-04-15T12:48:32;3.40;;;1.63;;
38264;SDS011;24062;47.480;8.768;2023-04-15T12:50:59;3.93;;;1.30;;
38264;SDS011;24062;47.480;8.768;2023-04-15T12:53:26;3.07;;;1.33;;
38264;SDS011;24062;47.480;8.768;2023-04-15T12:55:53;2.17;;;1.33;;
38264;SDS011;24062;47.480;8.768;2023-04-15T12:58:22;4.70;;;1.53;;
38264;SDS011;24062;47.480;8.768;2023-04-15T13:00:48;2.97;;;1.40;;
38264;SDS011;24062;47.480;8.768;2023-04-15T13:03:15;4.77;;;2.00;;
38264;SDS011;24062;47.480;8.768;2023-04-15T13:05:43;3.90;;;1.57;;
38264;SDS011;24062;47.480;8.768;2023-04-15T13:08:10;3.10;;;1.63;;
38264;SDS011;24062;47.480;8.768;2023-04-15T13:10:37;2.67;;;1.53;;
38264;SDS011;24062;47.480;8.768;2023-04-15T13:13:04;3.47;;;1.30;;
38264;SDS011;24062;47.480;8.768;2023-04-15T13:15:32;2.87;;;1.30;;
38264;SDS011;24062;47.480;8.768;2023-04-15T13:17:59;3.20;;;1.67;;
38264;SDS011;24062;47.480;8.768;2023-04-15T13:20:26;2.30;;;1.40;;
38264;SDS011;24062;47.480;8.768;2023-04-15T13:22:53;3.13;;;1.40;;
38264;SDS011;24062;47.480;8.768;2023-04-15T13:25:20;2.60;;;1.43;;
38264;SDS011;24062;47.480;8.768;2023-04-15T13:27:48;4.73;;;1.30;;
38264;SDS011;24062;47.480;8.768;2023-04-15T13:30:15;2.77;;;1.50;;
38264;SDS011;24062;47.480;8.768;2023-04-15T13:32:43;2.67;;;1.60;;
38264;SDS011;24062;47.480;8.768;2023-04-15T13:35:10;2.47;;;1.57;;
38264;SDS011;24062;47.480;8.768;2023-04-15T13:37:37;2.93;;;1.70;;
38264;SDS011;24062;47.480;8.768;2023-04-15T13:40:05;2.10;;;1.30;;
38264;SDS011;24062;47.480;8.768;2023-04-15T13:42:32;3.00;;;1.67;;
38264;SDS011;24062;47.480;8.768;2023-04-15T13:44:59;2.13;;;1.43;;
38264;SDS011;24062;47.480;8.768;2023-04-15T13:47:26;2.40;;;1.27;;
38264;SDS011;24062;47.480;8.768;2023-04-15T13:49:55;4.60;;;1.90;;
38264;SDS011;24062;47.480;8.768;2023-04-15T13:52:22;2.77;;;1.27;;
38264;SDS011;24062;47.480;8.768;2023-04-15T13:54:49;3.60;;;1.40;;
38264;SDS011;24062;47.480;8.768;2023-04-15T13:57:16;2.70;;;1.23;;
38264;SDS011;24062;47.480;8.768;2023-04-15T13:59:43;3.30;;;1.30;;
38264;SDS011;24062;47.480;8.768;2023-04-15T14:02:10;3.57;;;1.33;;
38264;SDS011;24062;47.480;8.768;2023-04-15T14:04:37;2.80;;;1.73;;
38264;SDS011;24062;47.480;8.768;2023-04-15T14:07:05;5.80;;;1.27;;
38264;SDS011;24062;47.480;8.768;2023-04-15T14:09:32;2.10;;;1.40;;
38264;SDS011;24062;47.480;8.768;2023-04-15T14:12:00;2.33;;;1.27;;
38264;SDS011;24062;47.480;8.768;2023-04-15T14:14:27;2.10;;;1.07;;
38264;SDS011;24062;47.480;8.768;2023-04-15T14:16:54;3.10;;;1.33;;
38264;SDS011;24062;47.480;8.768;2023-04-15T14:19:21;2.37;;;1.00;;
38264;SDS011;24062;47.480;8.768;2023-04-15T14:21:48;1.80;;;1.27;;
38264;SDS011;24062;47.480;8.768;2023-04-15T14:24:17;3.63;;;1.10;;
38264;SDS011;24062;47.480;8.768;2023-04-15T14:26:44;2.57;;;1.10;;
38264;SDS011;24062;47.480;8.768;2023-04-15T14:29:11;2.90;;;1.00;;
38264;SDS011;24062;47.480;8.768;2023-04-15T14:31:40;2.23;;;1.00;;
38264;SDS011;24062;47.480;8.768;2023-04-15T14:34:08;2.50;;;0.83;;
38264;SDS011;24062;47.480;8.768;2023-04-15T14:36:35;4.10;;;0.90;;
38264;SDS011;24062;47.480;8.768;2023-04-15T14:39:02;3.30;;;0.80;;
38264;SDS011;24062;47.480;8.768;2023-04-15T14:41:31;2.17;;;1.30;;
38264;SDS011;24062;47.480;8.768;2023-04-15T14:43:58;2.53;;;0.90;;
38264;SDS011;24062;47.480;8.768;2023-04-15T14:46:25;4.87;;;1.23;;
38264;SDS011;24062;47.480;8.768;2023-04-15T14:48:51;1.93;;;1.03;;
38264;SDS011;24062;47.480;8.768;2023-04-15T14:51:18;2.20;;;0.80;;
38264;SDS011;24062;47.480;8.768;2023-04-15T14:53:45;1.80;;;0.90;;
38264;SDS011;24062;47.480;8.768;2023-04-15T14:56:12;4.43;;;0.90;;
38264;SDS011;24062;47.480;8.768;2023-04-15T14:58:41;1.70;;;0.97;;